createdAt,value
2023-01-10T00:01:54.260Z,82.93
2023-01-10T00:04:22.651Z,83.31
2023-01-10T00:06:51.048Z,83.74
2023-01-10T00:09:19.351Z,83.80
2023-01-10T00:12:05.966Z,83.50
2023-01-10T00:14:37.227Z,83.38
2023-01-10T00:17:06.300Z,84.12
2023-01-10T00:19:34.586Z,83.90
2023-01-10T00:22:06.729Z,83.81
2023-01-10T00:24:35.091Z,83.36
2023-01-10T00:27:04.016Z,83.39
2023-01-10T00:29:32.621Z,83.25
2023-01-10T00:32:01.160Z,83.31
2023-01-10T00:34:29.463Z,83.58
2023-01-10T00:36:57.803Z,82.55
2023-01-10T00:39:28.438Z,83.76
2023-01-10T00:42:14.989Z,83.94
2023-01-10T00:44:43.314Z,83.12
2023-01-10T00:47:11.599Z,83.87
2023-01-10T00:49:40.088Z,83.84
2023-01-10T00:52:08.477Z,83.93
2023-01-10T00:54:36.868Z,84.53
2023-01-10T00:57:05.303Z,84.46
2023-01-10T00:59:33.574Z,83.92
2023-01-10T01:02:02.125Z,84.66
2023-01-10T01:04:35.041Z,83.30
2023-01-10T01:07:04.058Z,83.63
2023-01-10T01:09:32.467Z,83.79
2023-01-10T01:12:00.860Z,84.21
2023-01-10T01:14:29.128Z,84.23
2023-01-10T01:16:58.800Z,81.51
2023-01-10T01:19:28.341Z,79.66
2023-01-10T01:21:56.612Z,78.68
2023-01-10T01:24:25.842Z,79.00
2023-01-10T01:26:54.218Z,79.46
2023-01-10T01:29:23.006Z,79.78
2023-01-10T01:31:51.578Z,80.04
2023-01-10T01:34:20.068Z,80.16
2023-01-10T01:36:49.004Z,80.05
2023-01-10T01:39:17.284Z,79.09
2023-01-10T01:42:01.363Z,78.37
2023-01-10T01:44:37.176Z,78.08
2023-01-10T01:47:09.951Z,77.61
2023-01-10T01:49:42.347Z,76.53
2023-01-10T01:52:20.194Z,76.25
2023-01-10T01:54:48.658Z,76.57
2023-01-10T01:57:24.748Z,76.86
2023-01-10T01:59:56.272Z,77.35
2023-01-10T02:02:32.549Z,76.99
2023-01-10T02:05:07.085Z,76.69
2023-01-10T02:07:41.851Z,75.32
2023-01-10T02:10:22.509Z,75.33
2023-01-10T02:12:54.523Z,76.49
2023-01-10T02:15:23.436Z,75.69
2023-01-10T02:17:54.160Z,75.37
2023-01-10T02:20:24.741Z,75.29
2023-01-10T02:23:21.831Z,74.67
2023-01-10T02:26:09.342Z,73.70
2023-01-10T02:28:52.610Z,74.02
2023-01-10T02:31:56.257Z,73.51
2023-01-10T02:34:37.837Z,73.05
2023-01-10T02:37:23.832Z,72.00
2023-01-10T02:40:01.967Z,72.20
2023-01-10T02:42:32.862Z,72.41
2023-01-10T02:45:30.575Z,74.37
2023-01-10T02:47:59.785Z,70.89
2023-01-10T02:50:38.134Z,71.94
2023-01-10T02:53:11.905Z,70.46
2023-01-10T02:56:11.655Z,69.72
2023-01-10T02:58:57.049Z,68.59
2023-01-10T03:01:28.538Z,68.03
2023-01-10T03:04:33.691Z,68.85
2023-01-10T03:07:08.177Z,68.82
2023-01-10T03:09:54.786Z,68.32
2023-01-10T03:12:36.300Z,69.26
2023-01-10T03:15:07.480Z,68.75
2023-01-10T03:17:38.351Z,69.13
2023-01-10T03:20:08.386Z,69.08
2023-01-10T03:22:40.689Z,68.56
2023-01-10T03:25:13.423Z,67.77
2023-01-10T03:28:01.723Z,68.09
2023-01-10T03:30:53.041Z,69.63
2023-01-10T03:33:28.627Z,69.56
2023-01-10T03:36:23.485Z,68.23
2023-01-10T03:39:18.954Z,66.83
2023-01-10T03:42:09.325Z,66.99
2023-01-10T03:45:05.983Z,66.21
2023-01-10T03:47:47.248Z,66.55
2023-01-10T03:50:27.536Z,64.83
2023-01-10T03:52:55.930Z,65.46
2023-01-10T03:55:28.375Z,64.46
2023-01-10T03:57:56.998Z,64.46
2023-01-10T04:00:26.988Z,63.73
2023-01-10T04:02:56.665Z,64.03
2023-01-10T04:05:24.960Z,63.89
2023-01-10T04:07:53.721Z,64.25
2023-01-10T04:10:23.933Z,62.89
2023-01-10T04:12:53.408Z,63.88
2023-01-10T04:15:21.768Z,64.27
2023-01-10T04:17:50.788Z,63.86
2023-01-10T04:20:19.190Z,63.88
2023-01-10T04:22:47.947Z,64.03
2023-01-10T04:25:16.916Z,63.93
2023-01-10T04:27:45.231Z,62.46
2023-01-10T04:30:13.704Z,62.81
2023-01-10T04:32:42.028Z,63.15
2023-01-10T04:35:10.689Z,62.41
2023-01-10T04:37:38.976Z,61.50
2023-01-10T04:40:08.008Z,62.55
2023-01-10T04:42:36.327Z,64.99
2023-01-10T04:45:04.873Z,63.06
2023-01-10T04:47:33.250Z,63.35
2023-01-10T04:50:01.571Z,66.17
2023-01-10T04:52:29.829Z,63.66
2023-01-10T04:54:58.400Z,62.81
2023-01-10T04:57:26.735Z,63.60
2023-01-10T04:59:55.030Z,62.88
2023-01-10T05:02:23.479Z,63.69
2023-01-10T05:04:51.810Z,63.59
2023-01-10T05:07:20.205Z,63.99
2023-01-10T05:09:48.525Z,63.71
2023-01-10T05:12:16.935Z,62.08
2023-01-10T05:14:45.239Z,62.67
2023-01-10T05:17:13.554Z,62.50
2023-01-10T05:19:41.901Z,62.50
2023-01-10T05:22:10.242Z,62.55
2023-01-10T05:24:38.543Z,62.96
2023-01-10T05:27:06.936Z,63.29
2023-01-10T05:29:36.242Z,65.08
2023-01-10T05:32:04.581Z,64.35
2023-01-10T05:34:32.866Z,65.49
2023-01-10T05:37:01.331Z,62.78
2023-01-10T05:39:29.848Z,64.31
2023-01-10T05:41:58.192Z,63.60
2023-01-10T05:44:26.501Z,62.33
2023-01-10T05:46:54.795Z,62.39
2023-01-10T05:49:23.131Z,62.23
2023-01-10T05:51:51.537Z,61.61
2023-01-10T05:54:20.200Z,61.97
2023-01-10T05:56:50.490Z,63.26
2023-01-10T05:59:28.128Z,61.72
2023-01-10T06:01:59.916Z,61.13
2023-01-10T06:04:29.022Z,63.45
2023-01-10T06:06:58.080Z,62.28
2023-01-10T06:09:34.086Z,61.41
2023-01-10T06:12:02.387Z,61.44
2023-01-10T06:14:30.702Z,60.91
2023-01-10T06:16:59.443Z,62.56
2023-01-10T06:19:29.814Z,63.31
2023-01-10T06:22:01.283Z,60.91
2023-01-10T06:24:34.148Z,61.71
2023-01-10T06:27:02.658Z,61.61
2023-01-10T06:29:34.741Z,61.70
2023-01-10T06:32:03.470Z,61.81
2023-01-10T06:34:31.781Z,61.13
2023-01-10T06:37:02.637Z,60.82
2023-01-10T06:39:30.972Z,61.86
2023-01-10T06:41:59.343Z,61.40
2023-01-10T06:44:28.112Z,60.37
2023-01-10T06:46:56.391Z,62.07
2023-01-10T06:49:24.766Z,60.95
2023-01-10T06:51:53.276Z,60.36
2023-01-10T06:54:21.607Z,61.34
2023-01-10T06:56:50.218Z,60.28
2023-01-10T06:59:18.534Z,60.94
2023-01-10T07:01:47.070Z,61.23
2023-01-10T07:04:15.540Z,60.31
2023-01-10T07:06:44.053Z,60.39
2023-01-10T07:09:12.529Z,61.17
2023-01-10T07:11:40.815Z,61.73
2023-01-10T07:14:10.751Z,61.87
2023-01-10T07:16:40.264Z,61.39
2023-01-10T07:19:08.909Z,61.84
2023-01-10T07:21:37.278Z,62.57
2023-01-10T07:24:05.792Z,60.54
2023-01-10T07:26:34.177Z,62.33
2023-01-10T07:29:02.560Z,64.06
2023-01-10T07:31:30.939Z,64.05
2023-01-10T07:33:59.346Z,64.96
2023-01-10T07:36:27.694Z,65.34
2023-01-10T07:38:56.123Z,63.55
2023-01-10T07:41:24.427Z,63.49
2023-01-10T07:43:52.784Z,62.37
2023-01-10T07:46:21.177Z,62.99
2023-01-10T07:48:50.119Z,62.75
2023-01-10T07:51:18.756Z,63.74
2023-01-10T07:53:47.087Z,66.42
2023-01-10T07:56:15.849Z,63.19
2023-01-10T07:58:44.156Z,62.92
2023-01-10T08:01:12.533Z,63.34
2023-01-10T08:03:40.984Z,63.56
2023-01-10T08:06:15.994Z,63.60
2023-01-10T08:08:45.277Z,62.99
2023-01-10T08:11:13.604Z,63.67
2023-01-10T08:13:42.037Z,66.07
2023-01-10T08:16:10.646Z,63.53
2023-01-10T08:18:43.316Z,63.21
2023-01-10T08:21:11.860Z,63.45
2023-01-10T08:23:40.188Z,63.18
2023-01-10T08:26:08.578Z,63.21
2023-01-10T08:28:36.903Z,64.10
2023-01-10T08:31:10.314Z,63.52
2023-01-10T08:33:40.708Z,63.77
2023-01-10T08:36:20.629Z,63.70
2023-01-10T08:38:49.296Z,65.01
2023-01-10T08:41:17.808Z,63.70
2023-01-10T08:43:46.147Z,64.39
2023-01-10T08:46:14.478Z,64.25
2023-01-10T08:48:43.042Z,64.84
2023-01-10T08:51:11.845Z,63.72
2023-01-10T08:53:43.891Z,64.98
2023-01-10T08:56:13.489Z,66.54
2023-01-10T08:58:41.898Z,66.65
2023-01-10T09:01:13.023Z,66.66
2023-01-10T09:03:41.865Z,65.10
2023-01-10T09:06:10.584Z,65.11
2023-01-10T09:08:40.129Z,65.84
2023-01-10T09:11:08.977Z,65.44
2023-01-10T09:13:37.300Z,65.98
2023-01-10T09:16:06.026Z,66.58
2023-01-10T09:18:35.088Z,66.08
2023-01-10T09:21:04.324Z,67.19
2023-01-10T09:23:33.094Z,66.83
2023-01-10T09:26:03.851Z,68.56
2023-01-10T09:28:32.268Z,68.28
2023-01-10T09:31:01.955Z,67.21
2023-01-10T09:33:45.333Z,66.65
2023-01-10T09:36:16.387Z,67.12
2023-01-10T09:38:45.694Z,67.24
2023-01-10T09:41:29.590Z,68.91
2023-01-10T09:44:21.726Z,68.20
2023-01-10T09:47:26.980Z,69.11
2023-01-10T09:50:24.018Z,69.09
2023-01-10T09:52:57.838Z,67.49
2023-01-10T09:55:33.565Z,66.74
2023-01-10T09:58:11.860Z,67.19
2023-01-10T10:00:46.229Z,67.57
2023-01-10T10:03:41.922Z,67.92
2023-01-10T10:06:15.586Z,68.03
2023-01-10T10:08:46.720Z,67.20
2023-01-10T10:11:27.262Z,67.41
2023-01-10T10:14:24.346Z,67.74
2023-01-10T10:17:28.468Z,68.12
2023-01-10T10:20:31.480Z,68.49
2023-01-10T10:23:02.832Z,70.09
2023-01-10T10:26:08.356Z,69.25
2023-01-10T10:29:13.498Z,69.35
2023-01-10T10:32:00.207Z,70.18
2023-01-10T10:34:50.608Z,70.57
2023-01-10T10:37:33.880Z,70.24
2023-01-10T10:40:04.009Z,72.75
2023-01-10T10:42:37.254Z,72.79
2023-01-10T10:45:16.918Z,70.72
2023-01-10T10:47:51.819Z,71.40
2023-01-10T10:50:33.694Z,72.83
2023-01-10T10:53:04.472Z,73.57
2023-01-10T10:55:36.532Z,72.45
2023-01-10T10:58:09.366Z,70.38
2023-01-10T11:00:37.767Z,71.17
2023-01-10T11:03:34.951Z,71.53
2023-01-10T11:06:03.847Z,71.51
2023-01-10T11:08:33.206Z,70.96
2023-01-10T11:11:07.663Z,71.08
2023-01-10T11:13:35.969Z,70.80
2023-01-10T11:16:07.363Z,70.17
2023-01-10T11:18:36.194Z,70.34
2023-01-10T11:21:16.508Z,70.62
2023-01-10T11:23:58.706Z,72.23
2023-01-10T11:26:37.226Z,70.34
2023-01-10T11:29:11.872Z,71.90
2023-01-10T11:31:40.329Z,72.32
2023-01-10T11:34:23.908Z,71.99
2023-01-10T11:36:58.267Z,72.89
2023-01-10T11:39:28.263Z,72.79
2023-01-10T11:41:59.103Z,72.24
2023-01-10T11:44:29.997Z,71.62
2023-01-10T11:47:05.008Z,71.54
2023-01-10T11:49:39.172Z,71.02
2023-01-10T11:52:27.014Z,71.17
2023-01-10T11:55:01.251Z,72.20
2023-01-10T11:57:33.239Z,71.84
2023-01-10T12:00:11.331Z,71.93
2023-01-10T12:02:45.165Z,72.73
2023-01-10T12:05:24.661Z,72.00
2023-01-10T12:08:17.169Z,72.62
2023-01-10T12:11:20.768Z,73.07
2023-01-10T12:13:52.446Z,72.85
2023-01-10T12:16:29.890Z,72.89
2023-01-10T12:19:01.221Z,74.59
2023-01-10T12:21:42.602Z,74.60
2023-01-10T12:24:17.597Z,74.14
2023-01-10T12:26:48.318Z,73.76
2023-01-10T12:29:21.842Z,73.11
2023-01-10T12:31:52.244Z,73.04
2023-01-10T12:34:47.659Z,74.04
2023-01-10T12:37:20.775Z,73.03
2023-01-10T12:40:21.144Z,73.04
2023-01-10T12:43:38.953Z,72.70
2023-01-10T12:47:04.628Z,73.18
2023-01-10T12:49:45.884Z,73.06
2023-01-10T12:52:49.420Z,73.63
2023-01-10T12:57:57.425Z,73.57
2023-01-10T13:00:40.620Z,73.22
2023-01-10T13:03:21.079Z,73.81
2023-01-10T13:05:51.661Z,74.68
2023-01-10T13:08:25.341Z,74.30
2023-01-10T13:10:57.111Z,74.21
2023-01-10T13:13:35.158Z,74.98
2023-01-10T13:16:28.146Z,74.50
2023-01-10T13:19:29.271Z,75.02
2023-01-10T13:22:20.820Z,76.30
2023-01-10T13:25:03.361Z,75.64
2023-01-10T13:27:35.211Z,75.38
2023-01-10T13:30:07.237Z,75.06
2023-01-10T13:32:37.386Z,74.88
2023-01-10T13:35:18.540Z,75.08
2023-01-10T13:37:54.317Z,76.10
2023-01-10T13:40:32.727Z,75.44
2023-01-10T13:43:35.412Z,75.55
2023-01-10T13:46:19.022Z,75.83
2023-01-10T13:49:01.015Z,75.51
2023-01-10T13:51:29.618Z,76.74
2023-01-10T13:54:25.241Z,77.16
2023-01-10T13:56:53.673Z,76.41
2023-01-10T13:59:43.392Z,76.68
2023-01-10T14:02:35.506Z,75.63
2023-01-10T14:05:19.251Z,75.72
2023-01-10T14:07:51.436Z,77.01
2023-01-10T14:10:30.245Z,77.54
2023-01-10T14:13:17.257Z,79.08
2023-01-10T14:15:48.633Z,77.40
2023-01-10T14:18:29.107Z,78.93
2023-01-10T14:21:07.234Z,77.42
2023-01-10T14:23:50.958Z,77.00
2023-01-10T14:26:39.805Z,78.01
2023-01-10T14:29:13.720Z,77.57
2023-01-10T14:31:50.870Z,77.09
2023-01-10T14:34:38.236Z,78.51
2023-01-10T14:37:29.776Z,76.40
2023-01-10T14:39:58.335Z,75.11
2023-01-10T14:42:29.363Z,75.39
2023-01-10T14:45:30.679Z,77.64
2023-01-10T14:47:58.974Z,77.73
2023-01-10T14:50:33.525Z,77.68
2023-01-10T14:53:01.961Z,78.39
2023-01-10T14:55:30.320Z,78.40
2023-01-10T14:58:01.306Z,78.03
2023-01-10T15:00:36.033Z,78.10
2023-01-10T15:03:05.157Z,77.29
2023-01-10T15:05:40.557Z,77.89
2023-01-10T15:08:29.529Z,78.17
2023-01-10T15:11:10.484Z,80.53
2023-01-10T15:13:54.949Z,80.75
2023-01-10T15:16:26.018Z,80.64
2023-01-10T15:18:57.499Z,80.91
2023-01-10T15:21:26.836Z,79.52
2023-01-10T15:23:55.245Z,80.70
2023-01-10T15:26:35.055Z,81.01
2023-01-10T15:29:14.230Z,81.07
2023-01-10T15:31:43.574Z,80.28
2023-01-10T15:34:20.883Z,81.06
2023-01-10T15:36:57.009Z,81.02
2023-01-10T15:39:32.268Z,81.72
2023-01-10T15:42:09.396Z,81.12
2023-01-10T15:44:39.608Z,82.56
2023-01-10T15:47:34.477Z,82.15
2023-01-10T15:50:03.169Z,81.73
2023-01-10T15:52:31.548Z,81.74
2023-01-10T15:55:00.260Z,81.89
2023-01-10T15:57:33.883Z,81.94
2023-01-10T16:00:02.445Z,81.81
2023-01-10T16:02:33.772Z,81.06
2023-01-10T16:05:23.032Z,80.57
2023-01-10T16:07:51.637Z,81.63
2023-01-10T16:10:28.503Z,82.24
2023-01-10T16:13:32.344Z,82.41
2023-01-10T16:16:04.155Z,82.97
2023-01-10T16:18:32.888Z,81.76
2023-01-10T16:21:04.104Z,82.81
2023-01-10T16:23:35.849Z,82.04
2023-01-10T16:26:10.243Z,82.63
2023-01-10T16:28:38.976Z,83.03
2023-01-10T16:31:11.794Z,82.52
2023-01-10T16:33:41.424Z,81.85
2023-01-10T16:36:18.566Z,81.52
2023-01-10T16:38:46.981Z,81.86
2023-01-10T16:41:34.220Z,81.87
2023-01-10T16:44:02.709Z,82.06
2023-01-10T16:46:31.883Z,82.72
2023-01-10T16:49:00.987Z,83.30
2023-01-10T16:51:33.306Z,83.48
2023-01-10T16:54:02.498Z,82.92
2023-01-10T16:56:31.519Z,82.43
2023-01-10T16:58:59.997Z,82.59
2023-01-10T17:01:33.452Z,82.24
2023-01-10T17:04:02.399Z,84.33
2023-01-10T17:06:30.880Z,84.28
2023-01-10T17:08:59.165Z,83.97
2023-01-10T17:11:39.204Z,83.72
2023-01-10T17:14:07.700Z,84.01
2023-01-10T17:16:36.109Z,83.72
2023-01-10T17:19:04.632Z,84.15
2023-01-10T17:21:32.921Z,84.17
2023-01-10T17:24:01.221Z,84.13
2023-01-10T17:26:29.520Z,84.04
2023-01-10T17:28:57.823Z,83.69
2023-01-10T17:31:26.198Z,83.52
2023-01-10T17:33:54.597Z,81.99
2023-01-10T17:36:23.574Z,82.60
2023-01-10T17:38:51.918Z,83.19
2023-01-10T17:41:20.242Z,83.20
2023-01-10T17:43:48.568Z,83.65
2023-01-10T17:46:18.718Z,83.33
2023-01-10T17:48:47.056Z,83.73
2023-01-10T17:51:15.440Z,84.20
2023-01-10T17:53:43.722Z,84.63
2023-01-10T17:56:12.626Z,84.23
2023-01-10T17:58:40.980Z,84.18
2023-01-10T18:01:21.777Z,85.22
2023-01-10T18:03:52.688Z,84.94
2023-01-10T18:06:24.518Z,85.11
2023-01-10T18:08:54.150Z,85.84
2023-01-10T18:11:26.298Z,85.96
2023-01-10T18:13:55.172Z,86.48
2023-01-10T18:16:25.609Z,86.71
2023-01-10T18:18:55.371Z,86.32
2023-01-10T18:21:23.721Z,86.31
2023-01-10T18:24:00.332Z,85.89
2023-01-10T18:26:28.631Z,85.97
2023-01-10T18:28:56.931Z,84.71
2023-01-10T18:31:25.450Z,85.11
2023-01-10T18:33:54.630Z,86.16
2023-01-10T18:36:25.235Z,86.32
2023-01-10T18:38:53.926Z,86.69
2023-01-10T18:41:22.596Z,87.36
2023-01-10T18:43:50.900Z,86.92
2023-01-10T18:46:22.606Z,86.96
2023-01-10T18:48:53.683Z,87.09
2023-01-10T18:51:23.608Z,88.37
2023-01-10T18:53:53.839Z,88.94
2023-01-10T18:56:22.298Z,88.59
2023-01-10T18:58:50.692Z,88.09
2023-01-10T19:01:21.391Z,87.99
2023-01-10T19:03:51.142Z,87.19
2023-01-10T19:06:23.563Z,87.50
2023-01-10T19:08:52.571Z,87.78
2023-01-10T19:11:21.652Z,88.13
2023-01-10T19:13:54.789Z,87.87
2023-01-10T19:16:24.506Z,88.30
2023-01-10T19:18:58.474Z,88.63
2023-01-10T19:21:28.240Z,88.24
2023-01-10T19:23:57.484Z,87.95
2023-01-10T19:26:26.718Z,88.05
2023-01-10T19:28:55.329Z,87.22
2023-01-10T19:31:26.105Z,87.29
2023-01-10T19:33:55.637Z,87.64
2023-01-10T19:36:25.539Z,87.46
2023-01-10T19:39:00.282Z,87.49
2023-01-10T19:41:30.285Z,87.70
2023-01-10T19:44:05.031Z,88.38
2023-01-10T19:46:34.975Z,87.95
2023-01-10T19:49:08.540Z,88.33
2023-01-10T19:51:41.602Z,87.65
2023-01-10T19:54:10.453Z,87.96
2023-01-10T19:56:38.972Z,87.84
2023-01-10T19:59:08.554Z,87.86
2023-01-10T20:01:37.189Z,86.95
2023-01-10T20:04:07.408Z,86.07
2023-01-10T20:06:39.272Z,86.39
2023-01-10T20:09:08.444Z,86.83
2023-01-10T20:11:41.328Z,87.26
2023-01-10T20:14:15.466Z,87.18
2023-01-10T20:16:44.282Z,87.15
2023-01-10T20:19:13.636Z,87.01
2023-01-10T20:21:43.433Z,86.93
2023-01-10T20:24:21.928Z,85.57
2023-01-10T20:26:52.082Z,86.17
2023-01-10T20:29:21.093Z,86.08
2023-01-10T20:31:56.758Z,84.64
2023-01-10T20:34:25.383Z,85.18
2023-01-10T20:36:55.300Z,85.24
2023-01-10T20:39:26.385Z,83.96
2023-01-10T20:41:54.779Z,82.54
2023-01-10T20:44:23.771Z,82.46
2023-01-10T20:46:52.133Z,83.11
2023-01-10T20:49:20.887Z,82.97
2023-01-10T20:51:54.622Z,83.17
2023-01-10T20:54:23.025Z,83.22
2023-01-10T20:56:51.430Z,83.11
2023-01-10T20:59:19.803Z,82.92
2023-01-10T21:01:48.163Z,84.07
2023-01-10T21:04:16.481Z,84.11
2023-01-10T21:06:44.812Z,83.47
2023-01-10T21:09:14.854Z,82.99
2023-01-10T21:11:59.420Z,83.46
2023-01-10T21:14:31.524Z,83.45
2023-01-10T21:16:59.855Z,82.85
2023-01-10T21:19:28.156Z,83.23
2023-01-10T21:21:56.446Z,82.53
2023-01-10T21:24:26.177Z,83.33
2023-01-10T21:26:54.495Z,82.14
2023-01-10T21:29:22.787Z,82.21
2023-01-10T21:31:54.067Z,83.40
2023-01-10T21:34:22.622Z,83.18
2023-01-10T21:36:50.969Z,83.01
2023-01-10T21:39:19.584Z,82.92
2023-01-10T21:42:06.087Z,84.23
2023-01-10T21:44:34.670Z,84.33
2023-01-10T21:47:03.279Z,84.07
2023-01-10T21:49:32.660Z,84.20
2023-01-10T21:52:01.038Z,83.29
2023-01-10T21:54:29.379Z,84.72
2023-01-10T21:56:57.663Z,83.70
2023-01-10T21:59:26.567Z,84.15
2023-01-10T22:01:54.955Z,84.43
2023-01-10T22:04:23.357Z,84.57
2023-01-10T22:06:51.782Z,84.44
2023-01-10T22:09:20.155Z,85.34
2023-01-10T22:11:48.456Z,85.85
2023-01-10T22:14:16.917Z,86.81
2023-01-10T22:16:45.214Z,88.25
2023-01-10T22:19:14.427Z,87.85
2023-01-10T22:21:42.701Z,88.79
2023-01-10T22:24:11.122Z,88.10
2023-01-10T22:26:39.578Z,87.73
2023-01-10T22:29:07.949Z,87.66
2023-01-10T22:31:36.363Z,87.20
2023-01-10T22:34:04.703Z,87.73
2023-01-10T22:36:33.066Z,87.33
2023-01-10T22:39:01.369Z,87.91
2023-01-10T22:41:29.843Z,87.33
2023-01-10T22:43:58.621Z,85.06
2023-01-10T22:46:27.408Z,86.48
2023-01-10T22:48:55.737Z,85.89
2023-01-10T22:51:25.200Z,86.22
2023-01-10T22:53:56.167Z,88.29
2023-01-10T22:56:27.012Z,88.02
2023-01-10T22:58:55.408Z,84.61
2023-01-10T23:01:25.844Z,87.68
2023-01-10T23:03:54.231Z,85.36
2023-01-10T23:06:22.796Z,86.22
2023-01-10T23:08:52.323Z,87.66
2023-01-10T23:11:22.460Z,88.08
2023-01-10T23:13:51.090Z,90.16
2023-01-10T23:16:23.161Z,90.92
2023-01-10T23:18:51.657Z,90.46
2023-01-10T23:21:20.304Z,89.88
2023-01-10T23:23:48.636Z,90.15
2023-01-10T23:26:17.010Z,90.26
2023-01-10T23:28:49.296Z,90.00
2023-01-10T23:31:23.341Z,89.96
2023-01-10T23:33:52.573Z,89.97
2023-01-10T23:36:21.207Z,90.32
2023-01-10T23:38:49.534Z,91.68
2023-01-10T23:41:18.148Z,90.99
2023-01-10T23:43:46.440Z,90.51
2023-01-10T23:46:14.881Z,90.54
2023-01-10T23:48:44.077Z,90.39
2023-01-10T23:51:12.384Z,90.03
2023-01-10T23:53:41.614Z,90.30
2023-01-10T23:56:15.717Z,90.31
2023-01-10T23:58:44.165Z,90.52
